createdAt,value
2022-08-05T00:02:15.985Z,100259.00
2022-08-05T00:04:55.613Z,100255.00
2022-08-05T00:08:00.898Z,100247.00
2022-08-05T00:10:27.252Z,100236.00
2022-08-05T00:13:00.922Z,100255.00
2022-08-05T00:15:55.476Z,100264.00
2022-08-05T00:18:30.443Z,100264.00
2022-08-05T00:21:04.197Z,100264.00
2022-08-05T00:23:45.833Z,100267.00
2022-08-05T00:26:22.640Z,100270.00
2022-08-05T00:28:56.505Z,100258.00
2022-08-05T00:31:54.148Z,100252.00
2022-08-05T00:34:56.931Z,100255.00
2022-08-05T00:37:17.923Z,100247.00
2022-08-05T00:39:58.066Z,100250.00
2022-08-05T00:42:42.357Z,100253.00
2022-08-05T00:45:38.848Z,100246.00
2022-08-05T00:48:18.479Z,100260.00
2022-08-05T00:51:08.733Z,100252.00
2022-08-05T00:54:02.843Z,100253.00
2022-08-05T00:56:36.823Z,100232.00
2022-08-05T00:59:12.838Z,100253.00
2022-08-05T01:01:48.851Z,100263.00
2022-08-05T01:04:27.024Z,100254.00
2022-08-05T01:07:05.249Z,100256.00
2022-08-05T01:09:38.892Z,100254.00
2022-08-05T01:12:19.207Z,100253.00
2022-08-05T01:15:05.076Z,100252.00
2022-08-05T01:17:46.689Z,100242.00
2022-08-05T01:20:41.707Z,100230.00
2022-08-05T01:23:34.995Z,100259.00
2022-08-05T01:26:38.339Z,100264.00
2022-08-05T01:29:23.146Z,100257.00
2022-08-05T01:32:04.330Z,100264.00
2022-08-05T01:34:46.808Z,100263.00
2022-08-05T01:37:33.881Z,100255.00
2022-08-05T01:40:13.752Z,100274.00
2022-08-05T01:42:53.977Z,100281.00
2022-08-05T01:45:34.981Z,100286.00
2022-08-05T01:48:18.593Z,100270.00
2022-08-05T01:50:53.775Z,100265.00
2022-08-05T01:53:54.900Z,100261.00
2022-08-05T01:58:09.706Z,100252.00
2022-08-05T01:59:25.000Z,100269.00
2022-08-05T02:02:04.525Z,100273.00
2022-08-05T02:04:56.267Z,100289.00
2022-08-05T02:07:30.642Z,100291.00
2022-08-05T02:10:07.835Z,100291.00
2022-08-05T02:12:52.711Z,100309.00
2022-08-05T02:15:33.504Z,100311.00
2022-08-05T02:18:31.820Z,100338.00
2022-08-05T02:21:19.774Z,100346.00
2022-08-05T02:24:00.850Z,100349.00
2022-08-05T02:26:54.914Z,100362.00
2022-08-05T02:29:58.710Z,100342.00
2022-08-05T02:32:31.478Z,100367.00
2022-08-05T02:35:14.464Z,100371.00
2022-08-05T02:37:55.151Z,100363.00
2022-08-05T02:40:34.111Z,100346.00
2022-08-05T02:43:08.288Z,100352.00
2022-08-05T02:45:51.393Z,100355.00
2022-08-05T02:48:29.784Z,100335.00
2022-08-05T02:51:05.842Z,100345.00
2022-08-05T02:53:41.014Z,100352.00
2022-08-05T02:56:16.024Z,100363.00
2022-08-05T02:58:54.271Z,100357.00
2022-08-05T03:01:32.489Z,100357.00
2022-08-05T03:04:14.035Z,100358.00
2022-08-05T03:06:53.881Z,100364.00
2022-08-05T03:09:37.492Z,100349.00
2022-08-05T03:12:31.013Z,100351.00
2022-08-05T03:15:06.896Z,100319.00
2022-08-05T03:17:44.750Z,100346.00
2022-08-05T03:20:19.626Z,100364.00
2022-08-05T03:22:58.044Z,100338.00
2022-08-05T03:26:04.932Z,100342.00
2022-08-05T03:28:26.846Z,100324.00
2022-08-05T15:47:46.754Z,100854.00
2022-08-05T15:50:25.208Z,100844.00
2022-08-05T15:53:04.078Z,100859.00
2022-08-05T15:56:02.724Z,100853.00
2022-08-05T15:58:37.226Z,100865.00
2022-08-05T16:01:16.453Z,100850.00
2022-08-05T16:03:55.080Z,100882.00
2022-08-05T16:06:30.028Z,100872.00
2022-08-05T16:09:05.559Z,100874.00
2022-08-05T16:11:44.464Z,100881.00
2022-08-05T16:14:18.644Z,100880.00
2022-08-05T16:16:55.655Z,100889.00
2022-08-05T16:20:05.525Z,100888.00
2022-08-05T16:22:34.419Z,100861.00
2022-08-05T16:25:11.234Z,100886.00
2022-08-05T16:28:00.076Z,100897.00
2022-08-05T16:30:41.475Z,100882.00
2022-08-05T16:33:18.079Z,100886.00
2022-08-05T16:35:55.178Z,100893.00
2022-08-05T16:38:29.966Z,100909.00
2022-08-05T16:42:11.915Z,100893.00
2022-08-05T16:44:04.398Z,100890.00
2022-08-05T16:46:41.160Z,100905.00
2022-08-05T16:49:17.237Z,100920.00
2022-08-05T16:51:54.912Z,100911.00
2022-08-05T16:54:33.137Z,100923.00
2022-08-05T16:57:17.944Z,100909.00
2022-08-05T17:00:02.990Z,100906.00
2022-08-05T17:02:42.230Z,100901.00
2022-08-05T17:05:17.105Z,100920.00
2022-08-05T17:07:54.747Z,100925.00
2022-08-05T17:10:31.085Z,100897.00
2022-08-05T17:13:05.724Z,100934.00
2022-08-05T17:15:55.600Z,100959.00
2022-08-05T17:18:42.930Z,100950.00
2022-08-05T17:21:19.999Z,100950.00
2022-08-05T17:24:04.636Z,100950.00
2022-08-05T17:26:43.043Z,100959.00
2022-08-05T17:29:17.368Z,100956.00
2022-08-05T17:31:58.868Z,100925.00
2022-08-05T17:34:34.885Z,100969.00
2022-08-05T17:37:27.247Z,100971.00
2022-08-05T17:40:10.284Z,100969.00
2022-08-05T17:42:51.155Z,100966.00
2022-08-05T17:45:37.967Z,100973.00
2022-08-05T17:48:13.780Z,100952.00
2022-08-05T17:50:50.258Z,100981.00
2022-08-05T17:53:29.777Z,100967.00
2022-08-05T17:56:12.237Z,100983.00
2022-08-05T17:58:48.532Z,100990.00
2022-08-05T18:01:23.882Z,100952.00
2022-08-05T18:04:03.539Z,100926.00
2022-08-05T18:06:39.372Z,100993.00
2022-08-05T18:09:14.635Z,101008.00
2022-08-05T18:11:52.618Z,101008.00
2022-08-05T18:14:26.884Z,101012.00
2022-08-05T18:17:00.953Z,101014.00
2022-08-05T18:19:36.116Z,101012.00
2022-08-05T18:22:11.495Z,101027.00
2022-08-05T18:24:52.075Z,101010.00
2022-08-05T18:27:27.740Z,101026.00
2022-08-05T18:30:01.924Z,101031.00
2022-08-05T18:32:36.125Z,101028.00
2022-08-05T18:35:17.533Z,100987.00
2022-08-05T18:37:54.880Z,101034.00
2022-08-05T18:41:49.991Z,101038.00
2022-08-05T18:43:25.824Z,101016.00
2022-08-05T18:46:07.108Z,101039.00
2022-08-05T18:48:44.176Z,101047.00
2022-08-05T18:52:06.151Z,101050.00
2022-08-05T18:54:32.890Z,101048.00
2022-08-05T18:57:15.515Z,101060.00
2022-08-05T19:00:01.805Z,101060.00
2022-08-05T19:02:38.699Z,101062.00
2022-08-05T19:06:11.915Z,101064.00
2022-08-05T19:08:13.425Z,101063.00
2022-08-05T19:10:49.854Z,101073.00
2022-08-05T19:13:24.145Z,101077.00
2022-08-05T19:16:24.382Z,101062.00
2022-08-05T19:19:00.160Z,101067.00
2022-08-05T19:21:36.080Z,101078.00
2022-08-05T19:24:12.714Z,101085.00
2022-08-05T19:26:54.803Z,101087.00
2022-08-05T19:29:36.380Z,101083.00
2022-08-05T19:32:12.547Z,101081.00
2022-08-05T19:34:55.230Z,101102.00
2022-08-05T19:37:47.259Z,101104.00
2022-08-05T19:40:25.259Z,101084.00
2022-08-05T19:43:05.600Z,101118.00
2022-08-05T19:45:54.327Z,101124.00
2022-08-05T19:48:30.405Z,101122.00
2022-08-05T19:51:05.569Z,101135.00
2022-08-05T19:54:04.075Z,101113.00
2022-08-05T19:56:38.579Z,101156.00
2022-08-05T19:59:51.663Z,101153.00
2022-08-05T20:02:08.574Z,101154.00
2022-08-05T20:04:45.740Z,101142.00
2022-08-05T20:07:46.801Z,101164.00
2022-08-05T20:10:14.832Z,101168.00
2022-08-05T20:12:50.119Z,101177.00
2022-08-05T20:15:51.612Z,101176.00
2022-08-05T20:18:34.071Z,101164.00
2022-08-05T20:21:11.248Z,101176.00
2022-08-05T20:23:51.161Z,101185.00
2022-08-05T20:26:28.456Z,101195.00
2022-08-05T20:29:02.479Z,101185.00
2022-08-05T20:31:50.428Z,101181.00
2022-08-05T20:34:27.949Z,101194.00
2022-08-05T20:37:03.932Z,101209.00
2022-08-05T20:39:38.778Z,101209.00
2022-08-05T20:42:14.132Z,101197.00
2022-08-05T20:44:55.762Z,101203.00
2022-08-05T20:47:31.797Z,101200.00
2022-08-05T20:50:08.363Z,101186.00
2022-08-05T20:52:46.906Z,101206.00
2022-08-05T20:56:07.292Z,101219.00
2022-08-05T20:58:17.134Z,101211.00
2022-08-05T21:00:54.499Z,101218.00
2022-08-05T21:03:34.397Z,101227.00
2022-08-05T21:06:27.541Z,101210.00
2022-08-05T21:09:06.101Z,101231.00
2022-08-05T21:12:07.388Z,101239.00
2022-08-05T21:14:35.567Z,101235.00
2022-08-05T21:17:09.820Z,101245.00
2022-08-05T21:19:47.851Z,101247.00
2022-08-05T21:22:26.927Z,101222.00
2022-08-05T21:25:03.949Z,101249.00
2022-08-05T21:27:40.359Z,101251.00
2022-08-05T21:30:26.868Z,101232.00
2022-08-05T21:33:03.242Z,101243.00
2022-08-05T21:35:55.372Z,101248.00
2022-08-05T21:38:35.464Z,101256.00
2022-08-05T21:41:15.002Z,101190.00
2022-08-05T21:44:03.717Z,101257.00
2022-08-05T21:46:39.167Z,101254.00
2022-08-05T21:49:56.623Z,101247.00
2022-08-05T21:52:22.948Z,101251.00
2022-08-05T21:55:07.039Z,101262.00
2022-08-05T21:57:43.026Z,101262.00
2022-08-05T22:00:18.632Z,101270.00
2022-08-05T22:02:53.666Z,101263.00
2022-08-05T22:05:27.670Z,101273.00
2022-08-05T22:08:02.432Z,101267.00
2022-08-05T22:10:36.876Z,101276.00
2022-08-05T22:14:18.239Z,101257.00
2022-08-05T22:16:32.150Z,101278.00
2022-08-05T22:19:02.542Z,101281.00
2022-08-05T22:21:36.501Z,101285.00
2022-08-05T22:24:40.284Z,101278.00
2022-08-05T22:28:08.943Z,101284.00
2022-08-05T22:30:44.210Z,101280.00
2022-08-05T22:33:57.134Z,101279.00
2022-08-05T22:36:25.231Z,101293.00
2022-08-05T22:39:04.269Z,101248.00
2022-08-05T22:42:09.443Z,101285.00
2022-08-05T22:44:38.437Z,101297.00
2022-08-05T22:47:14.318Z,101304.00
2022-08-05T22:50:19.893Z,101290.00
2022-08-05T22:52:55.372Z,101300.00
2022-08-05T22:55:29.565Z,101305.00
2022-08-05T22:58:28.407Z,101313.00
2022-08-05T23:01:03.046Z,101312.00
2022-08-05T23:03:57.921Z,101318.00
2022-08-05T23:06:34.494Z,101320.00
2022-08-05T23:09:27.049Z,101323.00
2022-08-05T23:12:02.467Z,101311.00
2022-08-05T23:14:36.678Z,101317.00
2022-08-05T23:17:32.728Z,101293.00
2022-08-05T23:20:17.550Z,101335.00
2022-08-05T23:22:55.682Z,101331.00
2022-08-05T23:25:53.524Z,101325.00
2022-08-05T23:28:29.498Z,101330.00
2022-08-05T23:31:16.883Z,101337.00
2022-08-05T23:34:04.446Z,101324.00
2022-08-05T23:36:44.523Z,101342.00
2022-08-05T23:39:23.714Z,101326.00
2022-08-05T23:42:14.239Z,101336.00
2022-08-05T23:44:54.535Z,101335.00
2022-08-05T23:47:33.643Z,101349.00
2022-08-05T23:50:09.940Z,101348.00
2022-08-05T23:52:49.724Z,101340.00
2022-08-05T23:55:31.165Z,101356.00
2022-08-05T23:58:31.821Z,101340.00
